Aeroporto :
LOGIN :

Iscrizione | Disclaimer

   EN    FR    IT 

 










Sommario :    VFR   VFR Marginale   IFR   IFR Intensivo   IFR Molto Intensivo
Visibilità : 
Base nubi : 
>= 8 km
>= 3000ft
5 / 8 km
1000 / 3000 ft
1500m / 5 km
500 / 1000 ft
800 / 1500m
200 / 500 ft
< 800m
< 200 ft
Simboli :   Temporali  Nebbia  Neve Forte  Precipitazioni Forti  Vento > 20 kt
SIGMETs :   Varie  Temporali  Ghiacco  Turbolenza  Onda orograficha  Ceneri Vulcaniche






- Altitudine del aeroporto : 266 ft
- Codice IATA : NCL


EGNT - Newcastle

ULTIMO METAR :
  • 261350Z 24014KT 9999 FEW017 08/05 Q0999

METARs OBSOLETI :
  • 261320Z 22008KT 170V240 9999 SCT017 08/07 Q0999
  • 261250Z 19009KT 160V220 8000 VCSH SCT012 07/06 Q0999
  • 261220Z 18008KT 140V220 8000 VCSH SCT020 07/06 Q0999
  • 261150Z 18011KT 140V210 8000 VCSH SCT020 07/06 Q0999
  • 261120Z 18012KT 160V220 8000 VCSH BKN020 07/06 Q1000

TAF TAF EGNT
Valido dal 26 a 12 ore il 27 a 12 ore UTC


261101Z 2612/2712 18012KT 9999 SCT025
TEMPO 2612/2615 18015G25KT
PROB30
TEMPO 2612/2615 7000 RA BKN014
BECMG 2615/2617 26010KT
BECMG 2621/2624 18005KT
PROB30
TEMPO 2703/2707 7000 RA BKN014
PROB30
TEMPO 2707/2712 7000 SHRA
ATIS : +44 191 214 3400



MetMap, La meteo Aeronautica in un colpo d'occhio ! - Copyright ORBIFLY Dicembre 2007 - Disclaimer

ORBIFLY MET'MAP TEAM :

Programmazione e sviluppo : Alexandra Zaïnal
Concezione : Baudouin d'Aumeries
Aiuto per la programmazione : Marc-Olivier Méhu
Supporto tecnico e logistico : Manuel Goepfert
Aiuto per la traduzione : Arnaldo La Scala

Contatto : metmap@orbifly.com




FONTI E CREDITI :

   NOAA